sensor_id;sensor_type;location;lat;lon;timestamp;temperature;humidity
21306;DHT22;10812;51.838;5.838;2022-07-29T00:01:19;17.70;99.90
21306;DHT22;10812;51.838;5.838;2022-07-29T00:03:47;17.70;99.90
21306;DHT22;10812;51.838;5.838;2022-07-29T00:06:16;17.70;99.90
21306;DHT22;10812;51.838;5.838;2022-07-29T00:08:44;17.70;99.90
21306;DHT22;10812;51.838;5.838;2022-07-29T00:11:12;17.70;99.90
21306;DHT22;10812;51.838;5.838;2022-07-29T00:13:40;17.60;99.90
21306;DHT22;10812;51.838;5.838;2022-07-29T00:16:16;17.60;99.90
21306;DHT22;10812;51.838;5.838;2022-07-29T00:18:45;17.70;99.90
21306;DHT22;10812;51.838;5.838;2022-07-29T00:21:13;17.70;99.90
21306;DHT22;10812;51.838;5.838;2022-07-29T00:23:41;17.60;99.90
21306;DHT22;10812;51.838;5.838;2022-07-29T00:26:10;17.70;99.90
21306;DHT22;10812;51.838;5.838;2022-07-29T00:28:38;17.60;99.90
21306;DHT22;10812;51.838;5.838;2022-07-29T00:31:06;17.60;99.90
21306;DHT22;10812;51.838;5.838;2022-07-29T00:33:34;17.60;99.90
21306;DHT22;10812;51.838;5.838;2022-07-29T00:36:04;17.60;99.90
21306;DHT22;10812;51.838;5.838;2022-07-29T00:38:32;17.50;99.90
21306;DHT22;10812;51.838;5.838;2022-07-29T00:41:00;17.50;99.90
21306;DHT22;10812;51.838;5.838;2022-07-29T00:43:28;17.50;99.90
21306;DHT22;10812;51.838;5.838;2022-07-29T00:45:56;17.50;99.90
21306;DHT22;10812;51.838;5.838;2022-07-29T00:48:24;17.50;99.90
21306;DHT22;10812;51.838;5.838;2022-07-29T00:50:52;17.40;99.90
21306;DHT22;10812;51.838;5.838;2022-07-29T00:53:22;17.50;99.90
21306;DHT22;10812;51.838;5.838;2022-07-29T00:55:50;17.40;99.90
21306;DHT22;10812;51.838;5.838;2022-07-29T00:58:19;17.40;99.90
21306;DHT22;10812;51.838;5.838;2022-07-29T01:00:47;17.40;99.90
21306;DHT22;10812;51.838;5.838;2022-07-29T01:03:15;17.40;99.90
21306;DHT22;10812;51.838;5.838;2022-07-29T01:05:44;17.30;99.90
21306;DHT22;10812;51.838;5.838;2022-07-29T01:08:17;17.30;99.90
21306;DHT22;10812;51.838;5.838;2022-07-29T01:10:48;17.30;99.90
21306;DHT22;10812;51.838;5.838;2022-07-29T01:13:17;17.30;99.90
21306;DHT22;10812;51.838;5.838;2022-07-29T01:15:49;17.20;99.90
21306;DHT22;10812;51.838;5.838;2022-07-29T01:18:24;17.20;99.90
21306;DHT22;10812;51.838;5.838;2022-07-29T01:21:21;17.20;99.90
21306;DHT22;10812;51.838;5.838;2022-07-29T01:27:26;17.20;99.90
21306;DHT22;10812;51.838;5.838;2022-07-29T01:30:02;17.20;99.90
21306;DHT22;10812;51.838;5.838;2022-07-29T01:32:33;17.20;99.90
21306;DHT22;10812;51.838;5.838;2022-07-29T01:35:05;17.20;99.90
21306;DHT22;10812;51.838;5.838;2022-07-29T01:37:43;17.20;99.90
21306;DHT22;10812;51.838;5.838;2022-07-29T01:40:18;17.20;99.90
21306;DHT22;10812;51.838;5.838;2022-07-29T01:50:33;17.30;99.90
21306;DHT22;10812;51.838;5.838;2022-07-29T01:53:05;17.30;99.90
21306;DHT22;10812;51.838;5.838;2022-07-29T01:55:38;17.30;99.90
21306;DHT22;10812;51.838;5.838;2022-07-29T01:58:09;17.20;99.90
21306;DHT22;10812;51.838;5.838;2022-07-29T02:00:38;17.20;99.90
21306;DHT22;10812;51.838;5.838;2022-07-29T02:03:11;17.00;99.90
21306;DHT22;10812;51.838;5.838;2022-07-29T02:05:42;16.90;99.90
21306;DHT22;10812;51.838;5.838;2022-07-29T02:08:13;16.80;99.90
21306;DHT22;10812;51.838;5.838;2022-07-29T02:10:44;16.60;99.90
21306;DHT22;10812;51.838;5.838;2022-07-29T02:13:13;16.40;99.90
21306;DHT22;10812;51.838;5.838;2022-07-29T02:15:44;16.10;99.90
21306;DHT22;10812;51.838;5.838;2022-07-29T02:18:15;16.00;99.90
21306;DHT22;10812;51.838;5.838;2022-07-29T02:20:49;15.80;99.90
21306;DHT22;10812;51.838;5.838;2022-07-29T02:23:19;15.70;99.90
21306;DHT22;10812;51.838;5.838;2022-07-29T02:25:49;15.70;99.90
21306;DHT22;10812;51.838;5.838;2022-07-29T02:28:19;15.70;99.90
21306;DHT22;10812;51.838;5.838;2022-07-29T02:30:49;15.60;99.90
21306;DHT22;10812;51.838;5.838;2022-07-29T02:33:19;15.60;99.90
21306;DHT22;10812;51.838;5.838;2022-07-29T02:35:50;15.50;99.90
21306;DHT22;10812;51.838;5.838;2022-07-29T02:38:20;15.40;99.90
21306;DHT22;10812;51.838;5.838;2022-07-29T02:41:10;15.40;99.90
21306;DHT22;10812;51.838;5.838;2022-07-29T02:43:39;15.40;99.90
21306;DHT22;10812;51.838;5.838;2022-07-29T02:46:13;15.30;99.90
21306;DHT22;10812;51.838;5.838;2022-07-29T02:48:59;15.20;99.90
21306;DHT22;10812;51.838;5.838;2022-07-29T02:51:46;15.30;99.90
21306;DHT22;10812;51.838;5.838;2022-07-29T02:54:24;15.20;99.90
21306;DHT22;10812;51.838;5.838;2022-07-29T03:06:06;15.10;99.90
21306;DHT22;10812;51.838;5.838;2022-07-29T03:08:57;15.10;99.90
21306;DHT22;10812;51.838;5.838;2022-07-29T03:14:57;15.00;99.90
21306;DHT22;10812;51.838;5.838;2022-07-29T03:17:26;15.00;99.90
21306;DHT22;10812;51.838;5.838;2022-07-29T03:19:54;15.00;99.90
21306;DHT22;10812;51.838;5.838;2022-07-29T03:22:24;14.90;99.90
21306;DHT22;10812;51.838;5.838;2022-07-29T03:24:54;15.00;99.90
21306;DHT22;10812;51.838;5.838;2022-07-29T03:27:22;14.90;99.90
21306;DHT22;10812;51.838;5.838;2022-07-29T03:29:50;14.90;99.90
21306;DHT22;10812;51.838;5.838;2022-07-29T03:32:19;14.90;99.90
21306;DHT22;10812;51.838;5.838;2022-07-29T03:34:50;14.90;99.90
21306;DHT22;10812;51.838;5.838;2022-07-29T03:37:19;14.90;99.90
21306;DHT22;10812;51.838;5.838;2022-07-29T03:39:47;14.90;99.90
21306;DHT22;10812;51.838;5.838;2022-07-29T03:42:20;14.90;99.90
21306;DHT22;10812;51.838;5.838;2022-07-29T03:44:51;14.90;99.90
21306;DHT22;10812;51.838;5.838;2022-07-29T03:47:23;14.90;99.90
21306;DHT22;10812;51.838;5.838;2022-07-29T03:50:14;14.90;99.90
21306;DHT22;10812;51.838;5.838;2022-07-29T03:52:43;14.90;99.90
21306;DHT22;10812;51.838;5.838;2022-07-29T03:55:11;14.90;99.90
21306;DHT22;10812;51.838;5.838;2022-07-29T03:57:42;14.80;99.90
21306;DHT22;10812;51.838;5.838;2022-07-29T04:00:11;14.80;99.90
21306;DHT22;10812;51.838;5.838;2022-07-29T04:02:39;14.80;99.90
21306;DHT22;10812;51.838;5.838;2022-07-29T04:05:12;14.80;99.90
21306;DHT22;10812;51.838;5.838;2022-07-29T04:07:40;14.80;99.90
21306;DHT22;10812;51.838;5.838;2022-07-29T04:10:08;14.80;99.90
21306;DHT22;10812;51.838;5.838;2022-07-29T04:12:36;14.70;99.90
21306;DHT22;10812;51.838;5.838;2022-07-29T04:15:07;14.70;99.90
21306;DHT22;10812;51.838;5.838;2022-07-29T04:17:35;14.70;99.90
21306;DHT22;10812;51.838;5.838;2022-07-29T04:20:04;14.70;99.90
21306;DHT22;10812;51.838;5.838;2022-07-29T04:22:32;14.70;99.90
21306;DHT22;10812;51.838;5.838;2022-07-29T04:25:00;14.70;99.90
21306;DHT22;10812;51.838;5.838;2022-07-29T04:27:30;14.70;99.90
21306;DHT22;10812;51.838;5.838;2022-07-29T04:29:58;14.80;99.90
21306;DHT22;10812;51.838;5.838;2022-07-29T04:32:27;14.70;99.90
21306;DHT22;10812;51.838;5.838;2022-07-29T04:34:55;14.70;99.90
21306;DHT22;10812;51.838;5.838;2022-07-29T04:37:23;14.70;99.90
21306;DHT22;10812;51.838;5.838;2022-07-29T04:39:52;14.70;99.90
21306;DHT22;10812;51.838;5.838;2022-07-29T04:42:20;14.70;99.90
21306;DHT22;10812;51.838;5.838;2022-07-29T04:44:53;14.70;99.90
21306;DHT22;10812;51.838;5.838;2022-07-29T04:47:21;14.70;99.90
21306;DHT22;10812;51.838;5.838;2022-07-29T04:49:51;14.70;99.90
21306;DHT22;10812;51.838;5.838;2022-07-29T04:52:19;14.80;99.90
21306;DHT22;10812;51.838;5.838;2022-07-29T04:54:47;14.80;99.90
21306;DHT22;10812;51.838;5.838;2022-07-29T04:57:15;14.70;99.90
21306;DHT22;10812;51.838;5.838;2022-07-29T04:59:44;14.80;99.90
21306;DHT22;10812;51.838;5.838;2022-07-29T05:02:12;14.80;99.90
21306;DHT22;10812;51.838;5.838;2022-07-29T05:04:40;14.80;99.90
21306;DHT22;10812;51.838;5.838;2022-07-29T05:07:09;14.80;99.90
21306;DHT22;10812;51.838;5.838;2022-07-29T05:09:37;14.80;99.90
21306;DHT22;10812;51.838;5.838;2022-07-29T05:12:06;14.80;99.90
21306;DHT22;10812;51.838;5.838;2022-07-29T05:14:35;14.90;99.90
21306;DHT22;10812;51.838;5.838;2022-07-29T05:17:03;14.90;99.90
21306;DHT22;10812;51.838;5.838;2022-07-29T05:19:31;15.00;99.90
21306;DHT22;10812;51.838;5.838;2022-07-29T05:22:05;15.00;99.90
21306;DHT22;10812;51.838;5.838;2022-07-29T05:24:34;15.00;99.90
21306;DHT22;10812;51.838;5.838;2022-07-29T05:27:03;15.00;99.90
21306;DHT22;10812;51.838;5.838;2022-07-29T05:29:31;15.10;99.90
21306;DHT22;10812;51.838;5.838;2022-07-29T05:32:10;15.00;99.90
21306;DHT22;10812;51.838;5.838;2022-07-29T05:34:38;15.00;99.90
21306;DHT22;10812;51.838;5.838;2022-07-29T05:37:18;15.00;99.90
21306;DHT22;10812;51.838;5.838;2022-07-29T05:39:47;15.00;99.90
21306;DHT22;10812;51.838;5.838;2022-07-29T05:42:23;15.00;99.90
21306;DHT22;10812;51.838;5.838;2022-07-29T05:44:51;15.10;99.90
21306;DHT22;10812;51.838;5.838;2022-07-29T05:47:19;15.20;99.90
21306;DHT22;10812;51.838;5.838;2022-07-29T05:49:48;15.20;99.90
21306;DHT22;10812;51.838;5.838;2022-07-29T05:52:16;15.20;99.90
21306;DHT22;10812;51.838;5.838;2022-07-29T05:54:44;15.20;99.90
21306;DHT22;10812;51.838;5.838;2022-07-29T05:57:17;15.30;99.90
21306;DHT22;10812;51.838;5.838;2022-07-29T05:59:45;15.40;99.90
21306;DHT22;10812;51.838;5.838;2022-07-29T06:02:14;15.40;99.90
21306;DHT22;10812;51.838;5.838;2022-07-29T06:04:42;15.40;99.90
21306;DHT22;10812;51.838;5.838;2022-07-29T06:07:10;15.40;99.90
21306;DHT22;10812;51.838;5.838;2022-07-29T06:09:38;15.50;99.90
21306;DHT22;10812;51.838;5.838;2022-07-29T06:12:07;15.60;99.90
21306;DHT22;10812;51.838;5.838;2022-07-29T06:14:37;15.60;99.90
21306;DHT22;10812;51.838;5.838;2022-07-29T06:17:05;15.70;99.90
21306;DHT22;10812;51.838;5.838;2022-07-29T06:19:34;15.90;99.90
21306;DHT22;10812;51.838;5.838;2022-07-29T06:22:03;15.80;99.90
21306;DHT22;10812;51.838;5.838;2022-07-29T06:24:31;15.90;99.90
21306;DHT22;10812;51.838;5.838;2022-07-29T06:26:59;16.10;99.90
21306;DHT22;10812;51.838;5.838;2022-07-29T06:29:27;16.30;99.90
21306;DHT22;10812;51.838;5.838;2022-07-29T06:31:57;16.50;99.90
21306;DHT22;10812;51.838;5.838;2022-07-29T06:34:25;16.70;99.90
21306;DHT22;10812;51.838;5.838;2022-07-29T06:36:53;16.40;99.90
21306;DHT22;10812;51.838;5.838;2022-07-29T06:39:22;16.50;99.90
21306;DHT22;10812;51.838;5.838;2022-07-29T06:41:50;16.60;99.90
21306;DHT22;10812;51.838;5.838;2022-07-29T06:44:18;16.50;99.90
21306;DHT22;10812;51.838;5.838;2022-07-29T06:46:46;16.40;99.90
21306;DHT22;10812;51.838;5.838;2022-07-29T06:49:17;16.50;99.90
21306;DHT22;10812;51.838;5.838;2022-07-29T06:51:46;16.60;99.90
21306;DHT22;10812;51.838;5.838;2022-07-29T06:54:14;16.80;99.90
21306;DHT22;10812;51.838;5.838;2022-07-29T06:56:42;16.70;99.90
21306;DHT22;10812;51.838;5.838;2022-07-29T06:59:11;16.80;99.90
21306;DHT22;10812;51.838;5.838;2022-07-29T07:01:42;16.80;99.90
21306;DHT22;10812;51.838;5.838;2022-07-29T07:04:11;16.90;99.90
21306;DHT22;10812;51.838;5.838;2022-07-29T07:06:42;16.90;99.90
21306;DHT22;10812;51.838;5.838;2022-07-29T07:09:10;16.80;99.90
21306;DHT22;10812;51.838;5.838;2022-07-29T07:11:38;16.80;99.90
21306;DHT22;10812;51.838;5.838;2022-07-29T07:14:06;16.90;99.90
21306;DHT22;10812;51.838;5.838;2022-07-29T07:16:35;16.90;99.90
21306;DHT22;10812;51.838;5.838;2022-07-29T07:19:04;17.00;99.90
21306;DHT22;10812;51.838;5.838;2022-07-29T07:21:33;17.00;99.90
21306;DHT22;10812;51.838;5.838;2022-07-29T07:24:03;17.00;99.90
21306;DHT22;10812;51.838;5.838;2022-07-29T07:26:32;16.90;99.90
21306;DHT22;10812;51.838;5.838;2022-07-29T07:29:00;16.90;99.90
21306;DHT22;10812;51.838;5.838;2022-07-29T07:31:28;17.00;99.90
21306;DHT22;10812;51.838;5.838;2022-07-29T07:33:56;16.90;99.90
21306;DHT22;10812;51.838;5.838;2022-07-29T07:36:24;16.90;99.90
21306;DHT22;10812;51.838;5.838;2022-07-29T07:38:52;17.00;99.90
21306;DHT22;10812;51.838;5.838;2022-07-29T07:41:22;16.90;99.90
21306;DHT22;10812;51.838;5.838;2022-07-29T07:43:50;16.90;99.90
21306;DHT22;10812;51.838;5.838;2022-07-29T07:46:18;16.90;99.90
21306;DHT22;10812;51.838;5.838;2022-07-29T07:48:46;16.80;99.90
21306;DHT22;10812;51.838;5.838;2022-07-29T07:51:14;16.80;99.90
21306;DHT22;10812;51.838;5.838;2022-07-29T07:53:42;16.90;99.90
21306;DHT22;10812;51.838;5.838;2022-07-29T07:56:11;17.00;99.90
21306;DHT22;10812;51.838;5.838;2022-07-29T07:58:40;17.10;99.90
21306;DHT22;10812;51.838;5.838;2022-07-29T08:01:09;17.20;99.90
21306;DHT22;10812;51.838;5.838;2022-07-29T08:03:37;17.50;99.90
21306;DHT22;10812;51.838;5.838;2022-07-29T08:06:06;17.50;99.90
21306;DHT22;10812;51.838;5.838;2022-07-29T08:08:34;17.60;99.90
21306;DHT22;10812;51.838;5.838;2022-07-29T08:11:02;17.70;99.90
21306;DHT22;10812;51.838;5.838;2022-07-29T08:13:36;17.50;99.90
21306;DHT22;10812;51.838;5.838;2022-07-29T08:16:06;17.60;99.90
21306;DHT22;10812;51.838;5.838;2022-07-29T08:18:43;17.70;99.90
21306;DHT22;10812;51.838;5.838;2022-07-29T08:21:12;17.80;99.90
21306;DHT22;10812;51.838;5.838;2022-07-29T08:23:41;17.90;99.90
21306;DHT22;10812;51.838;5.838;2022-07-29T08:26:24;18.00;99.90
21306;DHT22;10812;51.838;5.838;2022-07-29T08:28:52;18.10;99.90
21306;DHT22;10812;51.838;5.838;2022-07-29T08:31:22;18.10;99.90
21306;DHT22;10812;51.838;5.838;2022-07-29T08:33:50;18.10;99.90
21306;DHT22;10812;51.838;5.838;2022-07-29T08:36:18;18.10;99.90
21306;DHT22;10812;51.838;5.838;2022-07-29T08:38:47;18.10;99.90
21306;DHT22;10812;51.838;5.838;2022-07-29T08:41:16;18.20;99.90
21306;DHT22;10812;51.838;5.838;2022-07-29T08:43:45;18.00;99.90
21306;DHT22;10812;51.838;5.838;2022-07-29T08:46:14;17.90;99.90
21306;DHT22;10812;51.838;5.838;2022-07-29T08:48:43;18.00;99.90
21306;DHT22;10812;51.838;5.838;2022-07-29T08:51:13;18.00;99.90
21306;DHT22;10812;51.838;5.838;2022-07-29T08:53:42;18.10;99.90
21306;DHT22;10812;51.838;5.838;2022-07-29T08:56:12;18.10;99.90
21306;DHT22;10812;51.838;5.838;2022-07-29T08:58:41;18.10;99.90
21306;DHT22;10812;51.838;5.838;2022-07-29T09:01:22;18.20;99.90
21306;DHT22;10812;51.838;5.838;2022-07-29T09:04:05;18.20;99.90
21306;DHT22;10812;51.838;5.838;2022-07-29T09:06:38;18.40;99.90
21306;DHT22;10812;51.838;5.838;2022-07-29T09:09:07;18.30;99.90
21306;DHT22;10812;51.838;5.838;2022-07-29T09:11:35;18.40;99.90
21306;DHT22;10812;51.838;5.838;2022-07-29T09:14:03;18.60;99.90
21306;DHT22;10812;51.838;5.838;2022-07-29T09:16:46;18.70;99.90
21306;DHT22;10812;51.838;5.838;2022-07-29T09:19:22;18.80;99.90
21306;DHT22;10812;51.838;5.838;2022-07-29T09:21:51;19.10;99.90
21306;DHT22;10812;51.838;5.838;2022-07-29T09:24:45;19.30;99.90
21306;DHT22;10812;51.838;5.838;2022-07-29T09:27:22;19.10;99.90
21306;DHT22;10812;51.838;5.838;2022-07-29T09:29:57;19.50;99.90
21306;DHT22;10812;51.838;5.838;2022-07-29T09:32:26;20.20;99.90
21306;DHT22;10812;51.838;5.838;2022-07-29T09:35:20;21.10;99.90
21306;DHT22;10812;51.838;5.838;2022-07-29T09:37:49;22.20;99.90
21306;DHT22;10812;51.838;5.838;2022-07-29T09:40:19;22.50;99.90
21306;DHT22;10812;51.838;5.838;2022-07-29T09:42:48;23.10;99.90
21306;DHT22;10812;51.838;5.838;2022-07-29T09:45:26;22.50;99.90
21306;DHT22;10812;51.838;5.838;2022-07-29T09:47:55;22.50;99.90
21306;DHT22;10812;51.838;5.838;2022-07-29T09:50:37;22.70;99.90
21306;DHT22;10812;51.838;5.838;2022-07-29T09:53:05;22.80;99.90
21306;DHT22;10812;51.838;5.838;2022-07-29T09:55:46;23.70;99.90
21306;DHT22;10812;51.838;5.838;2022-07-29T09:58:16;24.30;99.50
21306;DHT22;10812;51.838;5.838;2022-07-29T10:00:46;24.80;99.40
21306;DHT22;10812;51.838;5.838;2022-07-29T10:03:14;24.40;98.70
21306;DHT22;10812;51.838;5.838;2022-07-29T10:05:45;24.50;98.50
21306;DHT22;10812;51.838;5.838;2022-07-29T10:08:13;25.30;97.70
21306;DHT22;10812;51.838;5.838;2022-07-29T10:11:09;25.70;97.10
21306;DHT22;10812;51.838;5.838;2022-07-29T10:13:38;25.50;97.40
21306;DHT22;10812;51.838;5.838;2022-07-29T10:16:06;24.90;98.00
21306;DHT22;10812;51.838;5.838;2022-07-29T10:18:35;25.10;97.30
21306;DHT22;10812;51.838;5.838;2022-07-29T10:21:07;25.20;97.50
21306;DHT22;10812;51.838;5.838;2022-07-29T10:23:36;25.90;96.00
21306;DHT22;10812;51.838;5.838;2022-07-29T10:26:13;25.60;95.40
21306;DHT22;10812;51.838;5.838;2022-07-29T10:28:41;25.70;95.40
21306;DHT22;10812;51.838;5.838;2022-07-29T10:31:13;25.50;95.40
21306;DHT22;10812;51.838;5.838;2022-07-29T10:33:51;25.20;96.50
21306;DHT22;10812;51.838;5.838;2022-07-29T10:36:38;25.70;95.10
21306;DHT22;10812;51.838;5.838;2022-07-29T10:39:19;25.40;95.20
21306;DHT22;10812;51.838;5.838;2022-07-29T10:41:59;25.30;95.60
21306;DHT22;10812;51.838;5.838;2022-07-29T10:44:31;25.00;95.50
21306;DHT22;10812;51.838;5.838;2022-07-29T10:47:00;25.00;95.80
21306;DHT22;10812;51.838;5.838;2022-07-29T10:49:29;25.00;96.10
21306;DHT22;10812;51.838;5.838;2022-07-29T10:52:03;24.60;95.90
21306;DHT22;10812;51.838;5.838;2022-07-29T10:54:47;24.20;96.60
21306;DHT22;10812;51.838;5.838;2022-07-29T10:57:22;24.20;97.50
21306;DHT22;10812;51.838;5.838;2022-07-29T11:00:31;24.20;97.30
21306;DHT22;10812;51.838;5.838;2022-07-29T11:03:00;23.70;97.70
21306;DHT22;10812;51.838;5.838;2022-07-29T11:05:56;23.60;98.80
21306;DHT22;10812;51.838;5.838;2022-07-29T11:08:27;23.90;97.90
21306;DHT22;10812;51.838;5.838;2022-07-29T11:11:31;23.90;97.80
21306;DHT22;10812;51.838;5.838;2022-07-29T11:14:00;23.60;98.40
21306;DHT22;10812;51.838;5.838;2022-07-29T11:17:00;23.40;98.70
21306;DHT22;10812;51.838;5.838;2022-07-29T11:19:33;23.80;98.30
21306;DHT22;10812;51.838;5.838;2022-07-29T11:22:01;23.60;98.70
21306;DHT22;10812;51.838;5.838;2022-07-29T11:24:32;23.60;98.70
21306;DHT22;10812;51.838;5.838;2022-07-29T11:27:15;23.20;99.40
21306;DHT22;10812;51.838;5.838;2022-07-29T11:29:54;23.40;99.20
21306;DHT22;10812;51.838;5.838;2022-07-29T11:32:25;23.50;98.80
21306;DHT22;10812;51.838;5.838;2022-07-29T11:35:14;23.60;98.50
21306;DHT22;10812;51.838;5.838;2022-07-29T11:37:46;23.60;98.90
21306;DHT22;10812;51.838;5.838;2022-07-29T11:40:24;24.00;97.90
21306;DHT22;10812;51.838;5.838;2022-07-29T11:42:52;24.00;97.90
21306;DHT22;10812;51.838;5.838;2022-07-29T11:45:25;23.90;97.20
21306;DHT22;10812;51.838;5.838;2022-07-29T11:48:16;23.80;98.00
21306;DHT22;10812;51.838;5.838;2022-07-29T11:50:58;23.90;96.90
21306;DHT22;10812;51.838;5.838;2022-07-29T11:53:26;23.60;97.70
21306;DHT22;10812;51.838;5.838;2022-07-29T11:56:17;23.60;98.00
21306;DHT22;10812;51.838;5.838;2022-07-29T11:59:02;23.50;98.20
21306;DHT22;10812;51.838;5.838;2022-07-29T12:01:34;23.70;98.20
21306;DHT22;10812;51.838;5.838;2022-07-29T12:04:03;23.90;97.80
21306;DHT22;10812;51.838;5.838;2022-07-29T12:06:32;24.30;97.10
21306;DHT22;10812;51.838;5.838;2022-07-29T12:09:06;23.90;97.20
21306;DHT22;10812;51.838;5.838;2022-07-29T12:11:42;23.90;97.70
21306;DHT22;10812;51.838;5.838;2022-07-29T12:14:26;24.00;98.00
21306;DHT22;10812;51.838;5.838;2022-07-29T12:16:55;23.90;97.10
21306;DHT22;10812;51.838;5.838;2022-07-29T12:19:24;24.00;97.70
21306;DHT22;10812;51.838;5.838;2022-07-29T12:21:54;24.10;96.90
21306;DHT22;10812;51.838;5.838;2022-07-29T12:24:26;23.90;97.00
21306;DHT22;10812;51.838;5.838;2022-07-29T12:27:12;24.10;96.70
21306;DHT22;10812;51.838;5.838;2022-07-29T12:29:55;24.20;97.00
21306;DHT22;10812;51.838;5.838;2022-07-29T12:32:31;24.20;96.50
21306;DHT22;10812;51.838;5.838;2022-07-29T12:35:02;24.20;96.80
21306;DHT22;10812;51.838;5.838;2022-07-29T12:37:33;24.50;95.90
21306;DHT22;10812;51.838;5.838;2022-07-29T12:40:10;24.40;95.80
21306;DHT22;10812;51.838;5.838;2022-07-29T12:42:40;24.40;96.60
21306;DHT22;10812;51.838;5.838;2022-07-29T12:45:09;24.50;95.90
21306;DHT22;10812;51.838;5.838;2022-07-29T12:47:51;24.30;96.10
21306;DHT22;10812;51.838;5.838;2022-07-29T12:50:20;24.30;96.10
21306;DHT22;10812;51.838;5.838;2022-07-29T12:52:52;24.20;96.10
21306;DHT22;10812;51.838;5.838;2022-07-29T12:55:38;24.20;95.90
21306;DHT22;10812;51.838;5.838;2022-07-29T12:58:07;23.80;96.70
21306;DHT22;10812;51.838;5.838;2022-07-29T13:00:36;23.90;97.40
21306;DHT22;10812;51.838;5.838;2022-07-29T13:03:04;24.00;96.90
21306;DHT22;10812;51.838;5.838;2022-07-29T13:05:59;24.20;96.50
21306;DHT22;10812;51.838;5.838;2022-07-29T13:08:27;24.00;96.50
21306;DHT22;10812;51.838;5.838;2022-07-29T13:10:55;24.10;96.70
21306;DHT22;10812;51.838;5.838;2022-07-29T13:13:25;24.30;96.20
21306;DHT22;10812;51.838;5.838;2022-07-29T13:16:06;24.30;96.20
21306;DHT22;10812;51.838;5.838;2022-07-29T13:18:35;24.50;96.00
21306;DHT22;10812;51.838;5.838;2022-07-29T13:21:11;24.70;95.50
21306;DHT22;10812;51.838;5.838;2022-07-29T13:23:39;24.80;95.60
21306;DHT22;10812;51.838;5.838;2022-07-29T13:45:13;25.00;95.20
21306;DHT22;10812;51.838;5.838;2022-07-29T13:47:41;25.10;94.80
21306;DHT22;10812;51.838;5.838;2022-07-29T13:50:15;25.30;94.20
21306;DHT22;10812;51.838;5.838;2022-07-29T13:52:43;25.50;93.80
21306;DHT22;10812;51.838;5.838;2022-07-29T13:55:11;25.50;93.50
21306;DHT22;10812;51.838;5.838;2022-07-29T13:57:39;25.40;93.70
21306;DHT22;10812;51.838;5.838;2022-07-29T14:00:08;25.50;93.90
21306;DHT22;10812;51.838;5.838;2022-07-29T14:02:38;25.70;93.20
21306;DHT22;10812;51.838;5.838;2022-07-29T14:05:07;25.70;93.20
21306;DHT22;10812;51.838;5.838;2022-07-29T14:07:37;25.60;93.60
21306;DHT22;10812;51.838;5.838;2022-07-29T14:10:07;25.70;93.90
21306;DHT22;10812;51.838;5.838;2022-07-29T14:12:35;25.70;93.00
21306;DHT22;10812;51.838;5.838;2022-07-29T14:15:04;25.70;93.90
21306;DHT22;10812;51.838;5.838;2022-07-29T14:17:33;25.80;93.40
21306;DHT22;10812;51.838;5.838;2022-07-29T14:20:03;25.50;92.70
21306;DHT22;10812;51.838;5.838;2022-07-29T14:22:31;25.50;93.40
21306;DHT22;10812;51.838;5.838;2022-07-29T14:25:08;25.50;93.50
21306;DHT22;10812;51.838;5.838;2022-07-29T14:27:41;25.40;92.90
21306;DHT22;10812;51.838;5.838;2022-07-29T14:30:10;25.40;93.90
21306;DHT22;10812;51.838;5.838;2022-07-29T14:32:38;25.40;93.20
21306;DHT22;10812;51.838;5.838;2022-07-29T14:35:08;25.50;93.00
21306;DHT22;10812;51.838;5.838;2022-07-29T14:37:37;25.50;93.20
21306;DHT22;10812;51.838;5.838;2022-07-29T14:40:07;25.60;93.00
21306;DHT22;10812;51.838;5.838;2022-07-29T14:42:36;25.50;93.20
21306;DHT22;10812;51.838;5.838;2022-07-29T14:45:06;25.50;93.80
21306;DHT22;10812;51.838;5.838;2022-07-29T14:47:35;25.50;93.20
21306;DHT22;10812;51.838;5.838;2022-07-29T14:50:04;25.50;93.30
21306;DHT22;10812;51.838;5.838;2022-07-29T14:52:33;25.70;93.70
21306;DHT22;10812;51.838;5.838;2022-07-29T14:55:02;25.90;93.20
21306;DHT22;10812;51.838;5.838;2022-07-29T14:57:41;25.80;92.60
21306;DHT22;10812;51.838;5.838;2022-07-29T15:00:10;25.60;93.10
21306;DHT22;10812;51.838;5.838;2022-07-29T15:02:39;25.70;93.10
21306;DHT22;10812;51.838;5.838;2022-07-29T15:05:27;25.80;92.90
21306;DHT22;10812;51.838;5.838;2022-07-29T15:07:56;25.60;93.40
21306;DHT22;10812;51.838;5.838;2022-07-29T15:10:25;25.60;92.90
21306;DHT22;10812;51.838;5.838;2022-07-29T15:12:54;25.40;92.80
21306;DHT22;10812;51.838;5.838;2022-07-29T15:15:22;25.40;93.30
21306;DHT22;10812;51.838;5.838;2022-07-29T15:17:50;25.30;92.80
21306;DHT22;10812;51.838;5.838;2022-07-29T15:20:18;25.10;93.20
21306;DHT22;10812;51.838;5.838;2022-07-29T15:22:47;25.10;93.90
21306;DHT22;10812;51.838;5.838;2022-07-29T15:25:17;25.20;93.80
21306;DHT22;10812;51.838;5.838;2022-07-29T15:27:45;25.30;93.60
21306;DHT22;10812;51.838;5.838;2022-07-29T15:30:19;25.30;93.50
21306;DHT22;10812;51.838;5.838;2022-07-29T15:33:00;25.30;93.30
21306;DHT22;10812;51.838;5.838;2022-07-29T15:35:28;25.50;92.90
21306;DHT22;10812;51.838;5.838;2022-07-29T15:37:57;25.60;92.90
21306;DHT22;10812;51.838;5.838;2022-07-29T15:40:26;25.80;92.80
21306;DHT22;10812;51.838;5.838;2022-07-29T15:42:54;26.10;92.80
21306;DHT22;10812;51.838;5.838;2022-07-29T15:45:22;26.30;93.10
21306;DHT22;10812;51.838;5.838;2022-07-29T15:47:51;26.40;93.00
21306;DHT22;10812;51.838;5.838;2022-07-29T15:50:19;26.40;93.20
21306;DHT22;10812;51.838;5.838;2022-07-29T15:52:47;26.50;93.00
21306;DHT22;10812;51.838;5.838;2022-07-29T15:55:15;26.60;92.60
21306;DHT22;10812;51.838;5.838;2022-07-29T15:57:46;26.50;92.40
21306;DHT22;10812;51.838;5.838;2022-07-29T16:00:14;26.60;92.80
21306;DHT22;10812;51.838;5.838;2022-07-29T16:02:43;26.40;92.70
21306;DHT22;10812;51.838;5.838;2022-07-29T16:05:11;26.50;92.60
21306;DHT22;10812;51.838;5.838;2022-07-29T16:07:39;26.40;92.70
21306;DHT22;10812;51.838;5.838;2022-07-29T16:10:08;26.40;92.80
21306;DHT22;10812;51.838;5.838;2022-07-29T16:12:36;26.40;92.30
21306;DHT22;10812;51.838;5.838;2022-07-29T16:15:06;26.40;92.50
21306;DHT22;10812;51.838;5.838;2022-07-29T16:17:36;26.40;92.40
21306;DHT22;10812;51.838;5.838;2022-07-29T16:20:05;26.60;92.50
21306;DHT22;10812;51.838;5.838;2022-07-29T16:22:33;26.30;92.40
21306;DHT22;10812;51.838;5.838;2022-07-29T16:25:02;26.30;92.30
21306;DHT22;10812;51.838;5.838;2022-07-29T16:27:30;26.20;92.10
21306;DHT22;10812;51.838;5.838;2022-07-29T16:30:06;26.40;91.80
21306;DHT22;10812;51.838;5.838;2022-07-29T16:32:35;26.50;92.10
21306;DHT22;10812;51.838;5.838;2022-07-29T16:35:04;26.30;92.30
21306;DHT22;10812;51.838;5.838;2022-07-29T16:37:32;26.10;92.50
21306;DHT22;10812;51.838;5.838;2022-07-29T16:40:03;25.90;92.50